createdAt,value
2019-03-29T00:00:39.301Z,68.60
2019-03-29T00:03:09.167Z,68.76
2019-03-29T00:05:38.943Z,68.78
2019-03-29T00:08:09.175Z,68.80
2019-03-29T00:10:38.810Z,69.19
2019-03-29T00:13:08.252Z,69.28
2019-03-29T00:15:38.050Z,69.43
2019-03-29T00:18:07.492Z,69.59
2019-03-29T00:20:36.933Z,69.88
2019-03-29T00:23:06.382Z,70.12
2019-03-29T00:25:35.820Z,70.27
2019-03-29T00:28:05.270Z,70.26
2019-03-29T00:30:34.700Z,70.22
2019-03-29T00:33:04.214Z,70.45
2019-03-29T00:35:34.176Z,70.23
2019-03-29T00:38:03.876Z,70.64
2019-03-29T00:40:33.426Z,70.84
2019-03-29T00:43:02.826Z,71.01
2019-03-29T00:45:32.270Z,70.87
2019-03-29T00:48:01.721Z,71.01
2019-03-29T00:50:31.181Z,71.07
2019-03-29T00:53:00.608Z,71.12
2019-03-29T00:55:30.046Z,71.49
2019-03-29T00:57:59.491Z,71.19
2019-03-29T01:00:31.469Z,71.43
2019-03-29T01:03:00.182Z,71.40
2019-03-29T01:05:29.619Z,71.80
2019-03-29T01:08:07.686Z,71.38
2019-03-29T01:10:30.218Z,71.41
2019-03-29T01:12:59.978Z,71.21
2019-03-29T01:15:29.410Z,71.97
2019-03-29T01:17:58.856Z,72.35
2019-03-29T01:20:28.285Z,71.77
2019-03-29T01:22:57.974Z,71.30
2019-03-29T01:25:27.434Z,71.71
2019-03-29T01:27:56.877Z,71.32
2019-03-29T01:30:26.307Z,71.42
2019-03-29T01:32:55.753Z,71.30
2019-03-29T01:35:25.185Z,71.21
2019-03-29T01:37:54.635Z,71.27
2019-03-29T01:40:24.076Z,71.19
2019-03-29T01:42:53.508Z,70.95
2019-03-29T01:45:22.958Z,70.97
2019-03-29T01:47:52.392Z,70.66
2019-03-29T01:50:22.213Z,70.55
2019-03-29T01:52:51.648Z,70.50
2019-03-29T01:55:21.110Z,70.48
2019-03-29T01:57:50.538Z,70.63
2019-03-29T02:00:34.167Z,70.63
2019-03-29T02:03:03.835Z,70.43
2019-03-29T02:05:33.287Z,70.70
2019-03-29T02:08:02.726Z,70.94
2019-03-29T02:10:32.177Z,70.97
2019-03-29T02:13:01.601Z,71.17
2019-03-29T02:15:31.053Z,71.24
2019-03-29T02:18:00.484Z,71.36
2019-03-29T02:20:30.268Z,71.18
2019-03-29T02:22:59.712Z,71.27
2019-03-29T02:25:29.164Z,71.09
2019-03-29T02:27:58.589Z,71.22
2019-03-29T02:30:28.034Z,71.17
2019-03-29T02:32:57.461Z,71.29
2019-03-29T02:35:26.907Z,71.18
2019-03-29T02:37:56.629Z,70.84
2019-03-29T02:40:26.471Z,71.28
2019-03-29T02:42:55.916Z,71.28
2019-03-29T02:45:25.357Z,71.41
2019-03-29T02:47:54.794Z,71.21
2019-03-29T02:50:24.251Z,71.58
2019-03-29T02:52:53.665Z,71.57
2019-03-29T02:55:23.106Z,71.63
2019-03-29T02:57:52.547Z,71.61
2019-03-29T03:00:22.226Z,72.03
2019-03-29T03:02:51.664Z,72.10
2019-03-29T03:05:21.108Z,72.26
2019-03-29T03:07:50.547Z,72.23
2019-03-29T03:10:20.509Z,72.47
2019-03-29T03:12:49.951Z,72.24
2019-03-29T03:15:19.464Z,72.43
2019-03-29T03:17:49.229Z,72.83
2019-03-29T03:20:19.212Z,72.83
2019-03-29T03:22:50.520Z,72.97
2019-03-29T03:25:19.967Z,72.74
2019-03-29T03:27:49.713Z,72.60
2019-03-29T03:30:19.312Z,73.01
2019-03-29T03:32:48.744Z,73.32
2019-03-29T03:35:18.251Z,73.34
2019-03-29T03:37:47.690Z,73.65
2019-03-29T03:40:17.227Z,73.90
2019-03-29T03:42:46.649Z,73.61
2019-03-29T03:45:16.235Z,73.73
2019-03-29T03:47:45.665Z,73.96
2019-03-29T03:50:34.401Z,73.91
2019-03-29T03:53:04.300Z,73.84
2019-03-29T03:55:35.052Z,74.03
2019-03-29T03:58:05.234Z,74.22
2019-03-29T04:00:56.433Z,74.30
2019-03-29T04:03:26.972Z,74.24
2019-03-29T04:05:56.418Z,74.48
2019-03-29T04:08:25.930Z,75.06
2019-03-29T04:10:55.440Z,75.61
2019-03-29T04:13:25.012Z,75.56
2019-03-29T04:15:54.466Z,75.82
2019-03-29T04:18:23.897Z,75.81
2019-03-29T04:20:53.357Z,75.73
2019-03-29T04:23:22.858Z,75.94
2019-03-29T04:25:52.305Z,75.74
2019-03-29T04:28:21.749Z,75.50
2019-03-29T04:30:51.194Z,76.09
2019-03-29T04:33:20.630Z,76.64
2019-03-29T04:35:50.085Z,76.84
2019-03-29T04:38:19.529Z,76.87
2019-03-29T04:40:48.967Z,76.90
2019-03-29T04:43:18.420Z,77.12
2019-03-29T04:45:48.098Z,77.70
2019-03-29T04:48:17.866Z,77.31
2019-03-29T04:50:47.311Z,77.14
2019-03-29T04:53:16.738Z,77.28
2019-03-29T04:55:46.230Z,77.33
2019-03-29T04:58:15.672Z,77.48
2019-03-29T05:00:45.386Z,77.89
2019-03-29T05:03:14.828Z,78.15
2019-03-29T05:05:44.280Z,78.29
2019-03-29T05:08:13.723Z,78.14
2019-03-29T05:10:43.186Z,78.02
2019-03-29T05:13:12.609Z,78.26
2019-03-29T05:15:42.061Z,77.75
2019-03-29T05:18:11.494Z,77.72
2019-03-29T05:20:41.342Z,77.42
2019-03-29T05:23:10.786Z,77.38
2019-03-29T05:25:40.237Z,77.30
2019-03-29T05:28:09.681Z,77.04
2019-03-29T05:30:39.499Z,77.35
2019-03-29T05:33:08.931Z,77.41
2019-03-29T05:35:38.393Z,78.04
2019-03-29T05:38:07.837Z,78.15
2019-03-29T05:40:37.285Z,78.53
2019-03-29T05:43:06.739Z,78.31
2019-03-29T05:45:36.187Z,78.37
2019-03-29T05:48:05.623Z,78.41
2019-03-29T05:50:36.799Z,78.33
2019-03-29T05:53:06.275Z,78.58
2019-03-29T05:55:35.726Z,79.05
2019-03-29T05:58:05.180Z,78.80
2019-03-29T06:00:34.623Z,78.50
2019-03-29T06:03:04.386Z,78.62
2019-03-29T06:05:33.836Z,78.29
2019-03-29T06:08:03.594Z,78.33
2019-03-29T06:10:33.046Z,77.95
2019-03-29T06:13:02.490Z,77.82
2019-03-29T06:15:31.933Z,77.83
2019-03-29T06:18:01.399Z,77.46
2019-03-29T06:20:30.839Z,77.22
2019-03-29T06:23:00.303Z,77.09
2019-03-29T06:25:29.750Z,77.37
2019-03-29T06:27:59.210Z,76.90
2019-03-29T06:30:32.228Z,76.82
2019-03-29T06:33:01.749Z,76.33
2019-03-29T06:35:34.269Z,76.13
2019-03-29T06:38:06.122Z,76.21
2019-03-29T06:40:35.562Z,75.87
2019-03-29T06:43:05.179Z,75.84
2019-03-29T06:45:47.232Z,75.47
2019-03-29T06:48:05.867Z,75.29
2019-03-29T06:50:35.332Z,75.33
2019-03-29T06:53:04.767Z,74.98
2019-03-29T06:55:34.214Z,74.97
2019-03-29T06:58:03.666Z,74.61
2019-03-29T07:00:33.107Z,74.31
2019-03-29T07:03:02.555Z,73.88
2019-03-29T07:05:31.993Z,73.75
2019-03-29T07:08:01.695Z,73.62
2019-03-29T07:10:31.205Z,73.41
2019-03-29T07:13:00.658Z,73.18
2019-03-29T07:15:30.175Z,72.97
2019-03-29T07:17:59.630Z,73.12
2019-03-29T07:20:29.067Z,72.76
2019-03-29T07:22:58.828Z,72.65
2019-03-29T07:25:28.265Z,72.36
2019-03-29T07:27:58.262Z,72.36
2019-03-29T07:30:27.688Z,72.36
2019-03-29T07:32:57.148Z,72.12
2019-03-29T07:35:26.582Z,72.34
2019-03-29T07:37:56.041Z,72.10
2019-03-29T07:40:25.491Z,71.85
2019-03-29T07:42:54.955Z,71.62
2019-03-29T07:45:24.382Z,71.77
2019-03-29T07:47:53.831Z,71.68
2019-03-29T07:50:23.287Z,71.54
2019-03-29T07:52:52.742Z,71.32
2019-03-29T07:55:22.248Z,70.85
2019-03-29T07:57:51.731Z,70.95
2019-03-29T08:00:21.170Z,70.83
2019-03-29T08:02:50.624Z,70.52
2019-03-29T08:05:20.067Z,70.27
2019-03-29T08:07:49.531Z,69.93
2019-03-29T08:10:27.452Z,69.65
2019-03-29T08:12:50.284Z,69.55
2019-03-29T08:17:53.468Z,69.20
2019-03-29T08:20:40.221Z,68.96
2019-03-29T08:22:54.097Z,68.31
2019-03-29T08:25:23.540Z,68.17
2019-03-29T08:27:52.999Z,68.25
2019-03-29T08:30:22.434Z,68.07
2019-03-29T08:32:51.904Z,68.02
2019-03-29T08:35:21.335Z,67.83
2019-03-29T08:37:50.794Z,67.86
2019-03-29T08:40:20.239Z,67.52
2019-03-29T08:42:49.693Z,66.48
2019-03-29T08:45:19.134Z,65.80
2019-03-29T08:47:48.580Z,65.81
2019-03-29T08:50:18.022Z,65.25
2019-03-29T08:52:47.485Z,64.87
2019-03-29T08:55:17.818Z,64.53
2019-03-29T08:57:47.394Z,64.26
2019-03-29T09:00:21.538Z,64.28
2019-03-29T09:02:51.014Z,63.97
2019-03-29T09:05:20.553Z,63.66
2019-03-29T09:07:50.014Z,64.00
2019-03-29T09:10:27.337Z,64.08
2019-03-29T09:12:56.810Z,64.10
2019-03-29T09:15:26.247Z,63.46
2019-03-29T09:17:55.687Z,62.70
2019-03-29T09:20:25.126Z,62.52
2019-03-29T09:22:54.577Z,62.43
2019-03-29T09:25:24.015Z,62.47
2019-03-29T09:27:53.730Z,62.24
2019-03-29T09:30:23.163Z,62.02
2019-03-29T09:32:52.658Z,61.46
2019-03-29T09:35:22.091Z,60.90
2019-03-29T09:37:51.543Z,59.96
2019-03-29T09:40:21.056Z,59.35
2019-03-29T09:43:00.703Z,59.18
2019-03-29T09:45:21.914Z,59.17
2019-03-29T09:47:51.369Z,58.21
2019-03-29T09:50:22.964Z,58.23
2019-03-29T09:52:52.310Z,57.99
2019-03-29T09:55:21.743Z,58.03
2019-03-29T09:57:51.191Z,57.92
2019-03-29T10:00:23.532Z,57.94
2019-03-29T10:02:52.088Z,58.23
2019-03-29T10:05:21.536Z,56.74
2019-03-29T10:07:50.973Z,55.56
2019-03-29T10:10:20.416Z,53.72
2019-03-29T10:12:49.856Z,52.91
2019-03-29T10:15:19.317Z,52.48
2019-03-29T10:17:48.760Z,52.26
2019-03-29T10:20:18.219Z,52.70
2019-03-29T10:22:47.663Z,52.90
2019-03-29T10:25:19.562Z,52.87
2019-03-29T10:27:48.280Z,52.97
2019-03-29T10:30:36.477Z,52.84
2019-03-29T10:33:06.196Z,51.73
2019-03-29T10:35:50.189Z,51.17
2019-03-29T10:38:07.775Z,51.09
2019-03-29T10:40:37.231Z,47.88
2019-03-29T10:43:06.662Z,48.44
2019-03-29T10:45:40.076Z,47.36
2019-03-29T10:48:07.285Z,47.18
2019-03-29T10:50:36.735Z,47.37
2019-03-29T10:53:06.543Z,46.62
2019-03-29T10:55:35.996Z,45.96
2019-03-29T10:58:05.436Z,46.23
2019-03-29T11:00:37.857Z,46.03
2019-03-29T11:03:08.259Z,46.15
2019-03-29T11:05:37.753Z,46.75
2019-03-29T11:08:07.255Z,46.37
2019-03-29T11:10:39.946Z,46.37
2019-03-29T11:13:14.160Z,47.02
2019-03-29T11:15:40.937Z,46.67
2019-03-29T11:18:10.382Z,45.93
2019-03-29T11:20:39.820Z,45.51
2019-03-29T11:23:09.545Z,44.98
2019-03-29T11:25:38.974Z,44.86
2019-03-29T11:28:08.979Z,45.21
2019-03-29T11:30:42.611Z,45.49
2019-03-29T11:33:09.649Z,45.19
2019-03-29T11:35:39.115Z,44.66
2019-03-29T11:38:08.560Z,44.20
2019-03-29T11:40:38.021Z,44.29
2019-03-29T11:43:07.735Z,44.37
2019-03-29T11:45:37.185Z,44.35
2019-03-29T11:48:09.256Z,43.57
2019-03-29T11:50:38.228Z,43.73
2019-03-29T11:53:07.665Z,43.51
2019-03-29T11:55:37.132Z,44.03
2019-03-29T11:58:06.627Z,43.44
2019-03-29T12:00:37.505Z,43.72
2019-03-29T12:03:09.187Z,42.95
2019-03-29T12:05:38.476Z,42.99
2019-03-29T12:08:08.001Z,42.13
2019-03-29T12:10:37.536Z,41.93
2019-03-29T12:13:08.839Z,41.35
2019-03-29T12:15:39.037Z,41.78
2019-03-29T12:18:08.463Z,42.12
2019-03-29T12:20:37.981Z,42.89
2019-03-29T12:23:07.489Z,42.36
2019-03-29T12:25:36.943Z,42.12
2019-03-29T12:28:06.512Z,41.93
2019-03-29T12:30:35.965Z,41.39
2019-03-29T12:33:05.399Z,41.77
2019-03-29T12:35:34.850Z,42.29
2019-03-29T12:38:04.297Z,41.95
2019-03-29T12:40:33.731Z,42.21
2019-03-29T12:43:03.173Z,42.50
2019-03-29T12:45:32.624Z,42.15
2019-03-29T12:48:02.059Z,42.92
2019-03-29T12:50:31.506Z,42.53
2019-03-29T12:53:00.941Z,42.17
2019-03-29T12:55:30.386Z,41.80
2019-03-29T12:57:59.841Z,42.21
2019-03-29T13:00:29.287Z,41.73
2019-03-29T13:02:58.725Z,41.82
2019-03-29T13:05:28.176Z,41.85
2019-03-29T13:07:57.614Z,41.50
2019-03-29T13:10:27.230Z,41.19
2019-03-29T13:13:00.225Z,41.02
2019-03-29T13:15:27.846Z,40.78
2019-03-29T13:17:57.286Z,41.26
2019-03-29T13:20:26.730Z,41.60
2019-03-29T13:22:56.170Z,41.49
2019-03-29T13:25:25.690Z,40.93
2019-03-29T13:27:59.075Z,40.36
2019-03-29T13:30:26.382Z,41.52
2019-03-29T13:32:55.827Z,42.07
2019-03-29T13:35:25.291Z,41.36
2019-03-29T13:37:54.806Z,41.42
2019-03-29T13:40:24.254Z,40.88
2019-03-29T13:42:53.705Z,40.52
2019-03-29T13:45:23.169Z,40.58
2019-03-29T13:47:52.601Z,41.28
2019-03-29T13:50:22.046Z,41.77
2019-03-29T13:52:51.484Z,40.79
2019-03-29T13:55:20.930Z,40.23
2019-03-29T13:57:50.368Z,39.90
2019-03-29T14:00:19.876Z,40.27
2019-03-29T14:02:49.329Z,40.05
2019-03-29T14:05:18.756Z,40.85
2019-03-29T14:07:48.223Z,40.54
2019-03-29T14:10:17.725Z,40.37
2019-03-29T14:12:47.171Z,40.41
2019-03-29T14:15:16.852Z,40.77
2019-03-29T14:17:46.295Z,40.06
2019-03-29T14:20:21.539Z,39.79
2019-03-29T14:22:51.169Z,40.19
2019-03-29T14:25:20.601Z,39.49
2019-03-29T14:27:50.055Z,38.62
2019-03-29T14:30:19.796Z,39.51
2019-03-29T14:32:49.254Z,38.73
2019-03-29T14:35:18.693Z,38.40
2019-03-29T14:37:48.156Z,38.88
2019-03-29T14:40:17.965Z,38.66
2019-03-29T14:42:47.415Z,38.36
2019-03-29T14:45:16.992Z,38.71
2019-03-29T14:47:46.446Z,38.36
2019-03-29T14:50:17.727Z,38.91
2019-03-29T14:52:47.166Z,38.63
2019-03-29T14:55:16.678Z,39.00
2019-03-29T14:57:46.122Z,39.16
2019-03-29T15:00:15.863Z,38.95
2019-03-29T15:02:45.313Z,38.27
2019-03-29T15:05:15.088Z,39.06
2019-03-29T15:07:44.609Z,38.50
2019-03-29T15:10:27.886Z,38.71
2019-03-29T15:12:57.899Z,38.87
2019-03-29T15:15:27.345Z,38.61
2019-03-29T15:17:56.790Z,39.54
2019-03-29T15:20:26.230Z,39.97
2019-03-29T15:22:55.700Z,38.87
2019-03-29T15:25:25.130Z,38.54
2019-03-29T15:27:54.566Z,39.42
2019-03-29T15:30:24.005Z,39.24
2019-03-29T15:32:53.481Z,40.25
2019-03-29T15:35:22.885Z,39.37
2019-03-29T15:37:52.327Z,39.96
2019-03-29T15:40:22.092Z,39.41
2019-03-29T15:42:51.542Z,39.88
2019-03-29T15:45:21.332Z,39.17
2019-03-29T15:47:50.800Z,39.52
2019-03-29T15:50:20.234Z,39.34
2019-03-29T15:52:49.681Z,36.64
2019-03-29T15:55:19.129Z,30.60
2019-03-29T15:57:48.585Z,26.81
2019-03-29T16:00:18.430Z,25.00
2019-03-29T16:02:47.890Z,22.81
2019-03-29T16:05:17.320Z,21.82
2019-03-29T16:07:46.763Z,21.27
2019-03-29T16:10:16.215Z,22.36
2019-03-29T16:12:45.655Z,19.70
2019-03-29T16:15:15.095Z,19.38
2019-03-29T16:17:44.535Z,21.66
2019-03-29T16:20:13.983Z,21.90
2019-03-29T16:22:43.704Z,22.02
2019-03-29T16:25:13.215Z,21.18
2019-03-29T16:27:42.660Z,20.80
2019-03-29T16:30:12.339Z,20.63
2019-03-29T16:32:41.789Z,21.15
2019-03-29T16:35:11.289Z,20.88
2019-03-29T16:37:40.822Z,21.78
2019-03-29T16:40:11.200Z,23.09
2019-03-29T16:42:40.654Z,23.86
2019-03-29T16:45:10.893Z,23.36
2019-03-29T16:47:40.340Z,23.01
2019-03-29T16:50:10.485Z,23.88
2019-03-29T16:52:39.939Z,23.94
2019-03-29T16:55:13.578Z,26.08
2019-03-29T16:57:41.402Z,27.78
2019-03-29T17:00:12.534Z,29.40
2019-03-29T17:02:42.279Z,31.00
2019-03-29T17:05:11.776Z,31.73
2019-03-29T17:07:41.225Z,32.46
2019-03-29T17:10:10.742Z,33.45
2019-03-29T17:12:40.179Z,33.84
2019-03-29T17:15:10.069Z,34.88
2019-03-29T17:17:39.811Z,35.57
2019-03-29T17:20:10.771Z,35.91
2019-03-29T17:22:43.122Z,36.43
2019-03-29T17:25:11.464Z,36.68
2019-03-29T17:27:40.895Z,37.15
2019-03-29T17:30:13.101Z,37.53
2019-03-29T17:32:42.530Z,37.61
2019-03-29T17:35:11.972Z,37.85
2019-03-29T17:37:41.411Z,38.07
2019-03-29T17:40:11.192Z,38.24
2019-03-29T17:42:40.620Z,38.68
2019-03-29T17:45:10.340Z,39.40
2019-03-29T17:47:39.845Z,39.59
2019-03-29T17:50:09.429Z,39.99
2019-03-29T17:52:38.866Z,40.54
2019-03-29T17:55:08.452Z,40.70
2019-03-29T17:57:37.888Z,40.95
2019-03-29T18:00:12.417Z,41.28
2019-03-29T18:02:41.851Z,41.97
2019-03-29T18:05:11.530Z,41.77
2019-03-29T18:07:40.971Z,42.56
2019-03-29T18:10:11.156Z,43.52
2019-03-29T18:12:40.596Z,43.39
2019-03-29T18:15:10.655Z,43.69
2019-03-29T18:17:40.094Z,43.79
2019-03-29T18:20:10.252Z,44.30
2019-03-29T18:22:39.693Z,44.56
2019-03-29T18:25:09.350Z,44.54
2019-03-29T18:27:38.784Z,44.97
2019-03-29T18:30:11.534Z,45.63
2019-03-29T18:32:41.045Z,45.72
2019-03-29T18:35:10.931Z,45.62
2019-03-29T18:37:40.743Z,46.08
2019-03-29T18:40:20.666Z,46.52
2019-03-29T18:42:50.108Z,46.65
2019-03-29T18:45:19.548Z,46.96
2019-03-29T18:47:48.988Z,47.52
2019-03-29T18:50:18.441Z,47.84
2019-03-29T18:52:48.190Z,47.90
2019-03-29T18:55:20.282Z,48.21
2019-03-29T18:57:49.703Z,48.48
2019-03-29T19:00:32.756Z,48.67
2019-03-29T19:03:02.802Z,49.23
2019-03-29T19:05:33.593Z,49.53
2019-03-29T19:08:03.106Z,49.65
2019-03-29T19:10:32.562Z,50.72
2019-03-29T19:13:02.311Z,50.84
2019-03-29T19:15:31.758Z,50.75
2019-03-29T19:18:01.193Z,50.95
2019-03-29T19:20:30.641Z,51.36
2019-03-29T19:23:00.079Z,51.84
2019-03-29T19:25:29.518Z,52.79
2019-03-29T19:27:58.963Z,52.33
2019-03-29T19:30:28.414Z,52.78
2019-03-29T19:32:57.855Z,52.87
2019-03-29T19:35:27.306Z,53.05
2019-03-29T19:37:56.741Z,53.41
2019-03-29T19:40:26.187Z,53.03
2019-03-29T19:42:55.634Z,53.25
2019-03-29T19:45:25.097Z,53.55
2019-03-29T19:47:54.523Z,54.02
2019-03-29T19:50:23.968Z,54.37
2019-03-29T19:52:53.416Z,54.51
2019-03-29T19:55:22.902Z,54.22
2019-03-29T19:57:52.308Z,54.62
2019-03-29T20:00:26.466Z,54.86
2019-03-29T20:02:56.211Z,55.23
2019-03-29T20:05:28.148Z,55.50
2019-03-29T20:07:57.922Z,56.00
2019-03-29T20:10:27.539Z,56.51
2019-03-29T20:12:58.018Z,56.98
2019-03-29T20:15:27.464Z,56.99
2019-03-29T20:17:56.902Z,56.81
2019-03-29T20:20:27.098Z,56.77
2019-03-29T20:22:57.427Z,56.86
2019-03-29T20:25:27.047Z,56.95
2019-03-29T20:27:58.605Z,56.86
2019-03-29T20:30:27.933Z,56.54
2019-03-29T20:32:57.992Z,56.43
2019-03-29T20:35:28.034Z,56.80
2019-03-29T20:37:57.594Z,56.85
2019-03-29T20:40:27.032Z,57.04
2019-03-29T20:42:56.551Z,56.77
2019-03-29T20:45:25.996Z,57.17
2019-03-29T20:47:55.505Z,57.48
2019-03-29T20:50:24.948Z,57.60
2019-03-29T20:52:54.393Z,57.96
2019-03-29T20:55:23.846Z,58.10
2019-03-29T20:57:53.281Z,58.57
2019-03-29T21:00:23.450Z,58.48
2019-03-29T21:02:53.119Z,58.35
2019-03-29T21:05:22.755Z,58.78
2019-03-29T21:07:54.854Z,58.69
2019-03-29T21:10:23.346Z,58.60
2019-03-29T21:12:52.819Z,58.65
2019-03-29T21:15:22.227Z,59.15
2019-03-29T21:17:56.900Z,58.45
2019-03-29T21:20:22.838Z,58.56
2019-03-29T21:22:52.293Z,58.51
2019-03-29T21:25:21.730Z,58.96
2019-03-29T21:27:51.183Z,59.24
2019-03-29T21:30:21.045Z,59.50
2019-03-29T21:32:50.498Z,59.48
2019-03-29T21:35:19.931Z,59.42
2019-03-29T21:37:49.382Z,59.94
2019-03-29T21:40:18.886Z,60.03
2019-03-29T21:42:48.472Z,60.36
2019-03-29T21:45:28.445Z,60.35
2019-03-29T21:48:02.039Z,61.07
2019-03-29T21:50:20.598Z,61.69
2019-03-29T21:52:50.044Z,61.77
2019-03-29T21:55:19.491Z,61.85
2019-03-29T21:57:48.939Z,62.17
2019-03-29T22:00:18.623Z,62.44
2019-03-29T22:02:48.078Z,62.65
2019-03-29T22:05:17.509Z,62.75
2019-03-29T22:07:47.175Z,62.59
2019-03-29T22:10:16.568Z,62.40
2019-03-29T22:12:46.091Z,62.63
2019-03-29T22:15:16.069Z,62.44
2019-03-29T22:17:45.504Z,62.81
2019-03-29T22:20:14.934Z,63.29
2019-03-29T22:22:44.378Z,63.06
2019-03-29T22:25:13.950Z,63.23
2019-03-29T22:27:43.399Z,63.48
2019-03-29T22:30:13.841Z,63.26
2019-03-29T22:32:43.283Z,63.35
2019-03-29T22:35:13.098Z,63.89
2019-03-29T22:37:42.595Z,64.04
2019-03-29T22:40:12.297Z,64.78
2019-03-29T22:42:41.739Z,65.66
2019-03-29T22:45:11.316Z,66.14
2019-03-29T22:47:40.746Z,66.50
2019-03-29T22:50:10.755Z,66.76
2019-03-29T22:52:40.465Z,66.82
2019-03-29T22:55:10.722Z,66.72
2019-03-29T22:57:40.167Z,66.95
2019-03-29T23:00:36.488Z,67.14
2019-03-29T23:03:07.538Z,67.13
2019-03-29T23:05:37.510Z,67.25
2019-03-29T23:08:07.297Z,67.22
2019-03-29T23:10:36.737Z,67.88
2019-03-29T23:13:06.190Z,68.22
2019-03-29T23:15:35.941Z,67.74
2019-03-29T23:18:05.359Z,67.58
2019-03-29T23:20:34.791Z,67.54
2019-03-29T23:23:04.235Z,67.86
2019-03-29T23:25:33.669Z,68.49
2019-03-29T23:28:03.113Z,68.47
2019-03-29T23:30:32.552Z,68.63
2019-03-29T23:33:01.998Z,69.36
2019-03-29T23:35:31.430Z,69.31
2019-03-29T23:38:00.873Z,69.55
2019-03-29T23:40:30.307Z,69.47
2019-03-29T23:42:59.751Z,69.83
2019-03-29T23:45:29.184Z,69.69
2019-03-29T23:47:58.615Z,69.81
2019-03-29T23:50:28.049Z,69.99
2019-03-29T23:52:57.494Z,70.17
2019-03-29T23:55:26.923Z,69.99
2019-03-29T23:57:56.372Z,69.66
